Time;durP1;ratioP1;P1;durP2;ratioP2;P2;SDS_P1;SDS_P2;PMS_P1;PMS_P2;Temp;Humidity;BMP_temperature;BMP_pressure;BME280_temperature;BME280_humidity;BME280_pressure;Samples;Min_cycle;Max_cycle;Signal;HPM_P1;HPM_P2
2021/07/21 00:01:12;;;;;;;17.30;8.32;;;17.90;99.90;;;;;;5060404;28;20470;-48
2021/07/21 00:03:37;;;;;;;11.38;7.75;;;17.80;99.90;;;;;;5060548;28;20037;-46
2021/07/21 00:06:03;;;;;;;13.15;9.02;;;17.90;99.90;;;;;;5059252;28;20051;-48
2021/07/21 00:08:29;;;;;;;11.20;7.72;;;17.90;99.90;;;;;;5063667;28;20108;-47
2021/07/21 00:13:27;;;;;;;11.90;8.15;;;17.80;99.90;;;;;;5057941;28;20104;-47
2021/07/21 00:13:40;;;;;;;12.90;8.30;;;17.80;99.90;;;;;;5059879;28;20466;-47
2021/07/21 00:16:13;;;;;;;12.65;7.93;;;17.80;99.90;;;;;;5058174;28;20033;-48
2021/07/21 00:21:09;;;;;;;11.75;7.85;;;17.80;99.90;;;;;;5058542;28;20329;-47
2021/07/21 00:23:35;;;;;;;11.60;8.38;;;17.80;99.90;;;;;;5060757;28;20255;-50
2021/07/21 00:26:01;;;;;;;11.30;7.95;;;17.80;99.90;;;;;;5059028;28;20043;-47
2021/07/21 00:28:27;;;;;;;12.30;8.05;;;17.80;99.90;;;;;;5060420;28;20484;-48
2021/07/21 00:30:54;;;;;;;12.45;7.82;;;17.80;99.90;;;;;;5060113;28;20482;-48
2021/07/21 00:33:20;;;;;;;11.60;8.07;;;17.80;99.90;;;;;;5053496;28;20030;-50
2021/07/21 00:35:46;;;;;;;9.65;6.88;;;17.70;99.90;;;;;;5056912;28;20535;-49
2021/07/21 00:38:12;;;;;;;9.80;7.18;;;17.70;99.90;;;;;;5060752;28;20052;-50
2021/07/21 00:40:39;;;;;;;11.80;7.90;;;17.70;99.90;;;;;;5061385;28;20025;-48
2021/07/21 00:43:04;;;;;;;12.45;8.20;;;17.70;99.90;;;;;;5061599;28;20028;-47
2021/07/21 00:45:30;;;;;;;13.38;8.85;;;17.70;99.90;;;;;;5060177;28;20039;-48
2021/07/21 00:47:56;;;;;;;13.52;9.88;;;17.70;99.90;;;;;;5058647;28;20097;-47
2021/07/21 00:50:21;;;;;;;10.85;7.95;;;17.70;99.90;;;;;;5060033;28;20029;-47
2021/07/21 00:52:50;;;;;;;12.48;8.25;;;17.70;99.90;;;;;;5058818;28;20028;-49
2021/07/21 00:55:16;;;;;;;15.38;8.75;;;17.70;99.90;;;;;;5055972;28;20106;-49
2021/07/21 00:57:42;;;;;;;15.68;9.55;;;17.70;99.90;;;;;;5061783;28;20028;-47
2021/07/21 01:00:11;;;;;;;14.43;8.65;;;17.60;99.90;;;;;;5057559;28;20106;-47
2021/07/21 01:02:37;;;;;;;11.75;8.55;;;17.60;99.90;;;;;;5061570;28;20359;-47
2021/07/21 01:05:10;;;;;;;11.63;8.52;;;17.60;99.90;;;;;;5057407;28;20040;-46
2021/07/21 01:07:42;;;;;;;11.45;8.32;;;17.60;99.90;;;;;;5056565;28;20064;-47
2021/07/21 01:10:09;;;;;;;15.02;8.60;;;17.60;99.90;;;;;;5058129;28;20300;-47
2021/07/21 01:12:42;;;;;;;14.02;9.45;;;17.60;99.90;;;;;;5055364;28;20309;-48
2021/07/21 01:15:20;;;;;;;16.08;10.13;;;17.60;99.90;;;;;;5064281;28;20036;-47
2021/07/21 01:18:02;;;;;;;15.93;9.55;;;17.50;99.90;;;;;;5052217;28;20173;-47
2021/07/21 01:20:33;;;;;;;14.82;9.52;;;17.50;99.90;;;;;;5049091;28;20081;-47
2021/07/21 01:23:12;;;;;;;13.73;9.07;;;17.50;99.90;;;;;;5052760;28;20021;-48
2021/07/21 01:25:59;;;;;;;13.00;9.27;;;17.50;99.90;;;;;;5063238;28;20044;-48
2021/07/21 01:28:28;;;;;;;11.48;8.48;;;17.50;99.90;;;;;;5066689;28;20028;-48
2021/07/21 01:30:56;;;;;;;13.82;9.75;;;17.50;99.90;;;;;;5059354;28;20027;-47
2021/07/21 01:33:24;;;;;;;13.85;9.05;;;17.50;99.90;;;;;;5049728;28;20095;-48
2021/07/21 01:35:59;;;;;;;13.27;9.93;;;17.50;99.90;;;;;;5063620;28;20031;-47
2021/07/21 01:38:29;;;;;;;17.25;10.07;;;17.40;99.90;;;;;;5054397;28;20079;-48
2021/07/21 01:41:01;;;;;;;11.70;9.02;;;17.40;99.90;;;;;;5062267;28;20052;-47
2021/07/21 01:43:29;;;;;;;16.70;9.88;;;17.40;99.90;;;;;;5041374;28;20386;-50
2021/07/21 01:45:58;;;;;;;12.75;9.88;;;17.40;99.90;;;;;;5063539;28;20028;-51
2021/07/21 01:48:25;;;;;;;16.58;10.88;;;17.40;99.90;;;;;;5059436;28;20070;-49
2021/07/21 01:50:55;;;;;;;15.85;9.68;;;17.40;99.90;;;;;;5063985;28;20021;-53
2021/07/21 01:53:21;;;;;;;13.82;9.32;;;17.40;99.90;;;;;;5049671;28;20226;-53
2021/07/21 01:55:48;;;;;;;15.07;9.45;;;17.40;99.90;;;;;;5056175;28;20040;-48
2021/07/21 01:58:14;;;;;;;15.05;9.38;;;17.40;99.90;;;;;;5062591;28;20123;-51
2021/07/21 02:00:42;;;;;;;12.48;9.10;;;17.30;99.90;;;;;;5059990;28;20017;-50
2021/07/21 02:03:09;;;;;;;19.52;9.43;;;17.30;99.90;;;;;;5066954;28;20033;-47
2021/07/21 02:05:35;;;;;;;13.38;9.57;;;17.30;99.90;;;;;;5059144;28;20070;-49
2021/07/21 02:08:03;;;;;;;14.93;9.35;;;17.30;99.90;;;;;;5067658;28;20340;-48
2021/07/21 02:10:31;;;;;;;14.30;8.55;;;17.40;99.90;;;;;;5059670;28;20402;-48
2021/07/21 02:13:01;;;;;;;16.55;9.52;;;17.30;99.90;;;;;;5060196;28;20078;-48
2021/07/21 02:15:26;;;;;;;13.68;9.25;;;17.30;99.90;;;;;;5067516;28;20021;-47
2021/07/21 02:17:54;;;;;;;18.05;11.23;;;17.30;99.90;;;;;;5058992;28;20036;-47
2021/07/21 02:20:20;;;;;;;15.48;10.13;;;17.30;99.90;;;;;;5063077;28;20044;-48
2021/07/21 02:22:47;;;;;;;15.65;9.98;;;17.30;99.90;;;;;;5061543;28;20116;-48
2021/07/21 02:25:14;;;;;;;14.10;9.15;;;17.30;99.90;;;;;;5061700;28;20024;-50
2021/07/21 02:27:40;;;;;;;14.20;9.63;;;17.30;99.90;;;;;;5062977;28;20028;-50
2021/07/21 02:30:08;;;;;;;16.10;10.38;;;17.30;99.90;;;;;;5060101;28;20071;-50
2021/07/21 02:32:46;;;;;;;14.30;9.55;;;17.20;99.90;;;;;;5062699;28;20074;-49
2021/07/21 02:35:18;;;;;;;15.23;10.35;;;17.20;99.90;;;;;;5062600;28;20505;-47
2021/07/21 02:37:43;;;;;;;13.07;9.88;;;17.20;99.90;;;;;;5065516;28;20025;-48
2021/07/21 02:40:09;;;;;;;13.95;9.80;;;17.30;99.90;;;;;;5060579;28;20367;-48
2021/07/21 02:42:35;;;;;;;15.43;10.73;;;17.20;99.90;;;;;;5062941;28;20064;-48
2021/07/21 02:45:01;;;;;;;15.95;10.43;;;17.20;99.90;;;;;;5055440;28;20086;-48
2021/07/21 02:47:28;;;;;;;16.27;10.32;;;17.20;99.90;;;;;;5067076;28;20078;-49
2021/07/21 02:49:53;;;;;;;15.80;11.30;;;17.20;99.90;;;;;;5061787;28;20021;-48
2021/07/21 02:52:39;;;;;;;18.80;11.23;;;17.20;99.90;;;;;;5062677;28;20488;-48
2021/07/21 02:55:13;;;;;;;16.33;10.38;;;17.20;99.90;;;;;;5060232;28;20489;-48
2021/07/21 02:57:49;;;;;;;16.40;11.70;;;17.20;99.90;;;;;;5063435;28;20028;-51
2021/07/21 03:00:18;;;;;;;19.23;11.65;;;17.20;99.90;;;;;;5058904;28;20478;-48
2021/07/21 03:02:47;;;;;;;18.85;11.05;;;17.10;99.90;;;;;;5064672;28;20029;-48
2021/07/21 03:05:14;;;;;;;16.40;11.50;;;17.10;99.90;;;;;;5034100;28;20028;-48
2021/07/21 03:07:44;;;;;;;17.02;11.25;;;17.10;99.90;;;;;;5033878;28;20407;-47
2021/07/21 03:10:11;;;;;;;19.60;11.47;;;17.10;99.90;;;;;;5029881;28;20132;-48
2021/07/21 03:12:39;;;;;;;15.45;10.65;;;17.10;99.90;;;;;;5030904;28;20022;-47
2021/07/21 03:15:07;;;;;;;17.30;11.68;;;17.10;99.90;;;;;;5031109;28;20022;-47
2021/07/21 03:17:37;;;;;;;18.80;11.88;;;17.10;99.90;;;;;;5029626;28;20392;-47
2021/07/21 03:20:06;;;;;;;18.58;10.77;;;17.00;99.90;;;;;;5031419;28;20036;-47
2021/07/21 03:22:34;;;;;;;17.05;11.80;;;17.10;99.90;;;;;;5035630;28;20457;-47
2021/07/21 03:25:01;;;;;;;20.50;11.40;;;17.10;99.90;;;;;;5030750;28;20043;-48
2021/07/21 03:27:28;;;;;;;15.63;10.68;;;17.10;99.90;;;;;;5030947;28;20048;-47
2021/07/21 03:29:54;;;;;;;18.38;11.85;;;17.10;99.90;;;;;;5031167;28;20044;-49
2021/07/21 03:32:24;;;;;;;15.02;11.10;;;17.10;99.90;;;;;;5030496;28;20026;-48
2021/07/21 03:34:50;;;;;;;18.97;12.40;;;17.10;99.90;;;;;;5029844;28;20026;-47
2021/07/21 03:37:17;;;;;;;17.17;11.77;;;17.00;99.90;;;;;;5033254;28;20033;-47
2021/07/21 03:39:44;;;;;;;19.83;11.85;;;17.10;99.90;;;;;;5030873;28;20022;-49
2021/07/21 03:42:12;;;;;;;18.92;11.68;;;17.10;99.90;;;;;;5031358;28;20105;-47
2021/07/21 03:44:40;;;;;;;17.23;12.43;;;17.10;99.90;;;;;;5032581;28;20032;-48
2021/07/21 03:47:07;;;;;;;16.42;10.60;;;17.10;99.90;;;;;;5031066;28;20021;-47
2021/07/21 03:49:32;;;;;;;17.38;11.35;;;17.10;99.90;;;;;;5030638;28;20041;-48
2021/07/21 03:51:58;;;;;;;17.00;12.00;;;17.10;99.90;;;;;;5037902;28;20029;-48
2021/07/21 03:54:26;;;;;;;16.08;10.30;;;17.10;99.90;;;;;;5035747;28;20491;-48
2021/07/21 03:56:52;;;;;;;16.05;10.48;;;17.10;99.90;;;;;;5033437;28;20021;-48
2021/07/21 03:59:19;;;;;;;15.82;11.75;;;17.10;99.90;;;;;;5055156;28;20190;-48
2021/07/21 04:01:47;;;;;;;16.63;11.00;;;17.10;99.90;;;;;;5052925;28;20059;-48
2021/07/21 04:04:18;;;;;;;14.65;10.88;;;17.10;99.90;;;;;;5055708;28;20028;-47
2021/07/21 04:06:45;;;;;;;19.10;12.10;;;17.10;99.90;;;;;;5054948;28;20498;-47
2021/07/21 04:09:15;;;;;;;16.17;11.85;;;17.10;99.90;;;;;;5057034;28;20102;-48
2021/07/21 04:11:41;;;;;;;18.10;11.75;;;17.10;99.90;;;;;;5055502;28;20247;-48
2021/07/21 04:14:10;;;;;;;17.85;11.32;;;17.10;99.90;;;;;;5048151;28;20368;-48
2021/07/21 04:16:36;;;;;;;15.82;11.27;;;17.10;99.90;;;;;;5048456;28;20624;-47
2021/07/21 04:19:04;;;;;;;16.02;12.02;;;17.10;99.90;;;;;;5063267;28;20036;-48
2021/07/21 04:21:30;;;;;;;17.20;12.13;;;17.10;99.90;;;;;;5057188;28;20024;-48
2021/07/21 04:23:56;;;;;;;15.38;10.68;;;17.20;99.90;;;;;;5062550;28;20125;-50
2021/07/21 04:26:25;;;;;;;14.55;10.57;;;17.20;99.90;;;;;;5057214;28;20036;-48
2021/07/21 04:28:52;;;;;;;16.73;11.48;;;17.20;99.90;;;;;;5064235;28;20051;-48
2021/07/21 04:31:26;;;;;;;20.17;11.93;;;17.20;99.90;;;;;;5050776;28;20044;-48
2021/07/21 04:33:55;;;;;;;16.02;11.32;;;17.30;99.90;;;;;;5049259;28;20028;-49
2021/07/21 04:36:22;;;;;;;16.80;11.43;;;17.30;99.90;;;;;;5040241;28;20041;-48
2021/07/21 04:38:49;;;;;;;17.33;11.98;;;17.30;99.90;;;;;;5038082;28;20353;-47
2021/07/21 04:41:15;;;;;;;19.83;12.35;;;17.30;99.90;;;;;;5057106;28;20523;-47
2021/07/21 04:43:42;;;;;;;15.07;10.60;;;17.40;99.90;;;;;;5033481;28;20028;-49
2021/07/21 04:46:09;;;;;;;17.10;11.90;;;17.40;99.90;;;;;;5046438;28;20492;-48
2021/07/21 04:48:37;;;;;;;19.88;11.85;;;17.40;99.90;;;;;;5044224;28;20025;-48
2021/07/21 04:51:03;;;;;;;20.70;12.15;;;17.40;99.90;;;;;;5049235;28;20021;-50
2021/07/21 04:53:31;;;;;;;18.10;12.73;;;17.40;99.90;;;;;;5033564;28;20167;-47
2021/07/21 04:55:56;;;;;;;17.98;12.40;;;17.40;99.90;;;;;;5034661;28;20085;-49
2021/07/21 04:58:22;;;;;;;20.33;11.90;;;17.40;99.90;;;;;;5063192;28;20112;-49
2021/07/21 05:00:51;;;;;;;20.20;12.18;;;17.50;99.90;;;;;;5035193;28;20395;-45
2021/07/21 05:03:17;;;;;;;18.55;12.32;;;17.50;99.90;;;;;;5030078;28;20036;-49
2021/07/21 05:05:43;;;;;;;14.82;11.18;;;17.60;99.90;;;;;;5029642;28;20395;-47
2021/07/21 05:08:09;;;;;;;17.75;12.68;;;17.60;99.90;;;;;;5042127;28;20035;-47
2021/07/21 05:10:34;;;;;;;19.17;12.45;;;17.60;99.90;;;;;;5034658;28;20025;-46
2021/07/21 05:13:01;;;;;;;18.98;12.05;;;17.60;99.90;;;;;;5031410;28;20388;-47
2021/07/21 05:15:27;;;;;;;17.38;11.10;;;17.60;99.90;;;;;;5055466;28;20017;-47
2021/07/21 05:17:53;;;;;;;16.73;11.40;;;17.60;99.90;;;;;;5053226;28;20106;-47
2021/07/21 05:20:19;;;;;;;17.10;12.80;;;17.70;99.90;;;;;;5058562;28;20120;-50
2021/07/21 05:22:47;;;;;;;17.92;11.65;;;17.60;99.90;;;;;;5058449;28;20025;-46
2021/07/21 05:25:18;;;;;;;16.58;11.15;;;17.60;99.90;;;;;;5058696;28;20023;-46
2021/07/21 05:27:44;;;;;;;17.13;12.15;;;17.70;99.90;;;;;;5051595;28;20116;-46
2021/07/21 05:30:11;;;;;;;15.43;11.15;;;17.70;99.90;;;;;;5055031;28;20029;-46
2021/07/21 05:32:37;;;;;;;17.35;12.10;;;17.80;99.90;;;;;;5054090;28;20032;-47
2021/07/21 05:35:04;;;;;;;18.20;12.75;;;17.80;99.90;;;;;;5061361;28;20128;-47
2021/07/21 05:37:30;;;;;;;19.85;12.55;;;17.80;99.90;;;;;;5054948;28;20029;-45
2021/07/21 05:39:56;;;;;;;20.90;12.60;;;17.80;99.90;;;;;;5048310;28;20043;-47
2021/07/21 05:42:21;;;;;;;15.90;11.75;;;17.80;99.90;;;;;;5062060;28;20035;-46
2021/07/21 05:44:47;;;;;;;19.83;12.35;;;17.90;99.90;;;;;;5054099;28;20032;-46
2021/07/21 05:47:12;;;;;;;19.52;11.93;;;18.00;99.90;;;;;;5057576;28;20024;-47
2021/07/21 05:49:38;;;;;;;24.70;12.32;;;18.00;99.90;;;;;;5053161;28;20025;-47
2021/07/21 05:52:04;;;;;;;15.50;12.20;;;18.00;99.90;;;;;;5044348;28;20033;-46
2021/07/21 05:54:30;;;;;;;17.02;11.27;;;18.20;99.90;;;;;;5039138;28;20127;-49
2021/07/21 05:56:55;;;;;;;15.45;11.55;;;18.20;99.90;;;;;;5034911;28;20029;-47
2021/07/21 05:59:21;;;;;;;14.60;12.23;;;18.20;99.90;;;;;;5033020;28;20033;-46
2021/07/21 06:01:46;;;;;;;17.90;12.40;;;18.30;99.90;;;;;;5033678;28;20079;-47
2021/07/21 06:04:12;;;;;;;17.67;11.82;;;18.30;99.90;;;;;;5033413;28;20351;-46
2021/07/21 06:06:37;;;;;;;19.52;12.57;;;18.40;99.90;;;;;;5034104;28;20052;-46
2021/07/21 06:09:04;;;;;;;18.33;11.95;;;18.50;99.90;;;;;;5038907;28;20041;-47
2021/07/21 06:11:30;;;;;;;16.70;11.68;;;18.50;99.90;;;;;;5034120;28;20032;-46
2021/07/21 06:13:59;;;;;;;18.58;11.82;;;18.40;99.90;;;;;;5047984;28;20036;-47
2021/07/21 06:16:25;;;;;;;18.52;11.85;;;18.40;99.90;;;;;;5046213;28;20495;-46
2021/07/21 06:18:50;;;;;;;17.48;11.70;;;18.40;99.90;;;;;;5057428;28;20040;-47
2021/07/21 06:21:16;;;;;;;17.27;11.60;;;18.60;99.90;;;;;;5057868;28;20039;-47
2021/07/21 06:23:41;;;;;;;14.52;10.43;;;18.50;99.90;;;;;;5066185;28;20028;-46
2021/07/21 06:26:07;;;;;;;16.90;12.93;;;18.60;99.90;;;;;;5062779;28;20028;-48
2021/07/21 06:28:34;;;;;;;15.82;11.35;;;18.60;99.90;;;;;;5066323;28;20056;-46
2021/07/21 06:31:00;;;;;;;14.90;11.10;;;18.70;99.90;;;;;;5064474;28;20024;-48
2021/07/21 06:33:25;;;;;;;17.38;12.00;;;18.70;99.90;;;;;;5066402;28;20025;-46
2021/07/21 06:35:51;;;;;;;18.20;12.77;;;18.80;99.90;;;;;;5065080;28;20255;-46
2021/07/21 06:38:17;;;;;;;20.67;12.40;;;18.80;99.90;;;;;;5058366;28;20033;-46
2021/07/21 06:40:43;;;;;;;17.48;11.85;;;18.90;99.90;;;;;;5041278;28;20033;-46
2021/07/21 06:43:08;;;;;;;19.88;11.20;;;19.00;99.90;;;;;;5034280;28;20041;-48
2021/07/21 06:45:34;;;;;;;18.25;11.13;;;19.00;99.90;;;;;;5030226;28;20051;-47
2021/07/21 06:48:00;;;;;;;17.83;11.30;;;19.10;99.90;;;;;;5031025;28;20376;-49
2021/07/21 06:50:26;;;;;;;14.23;10.80;;;19.10;99.90;;;;;;5032378;28;20032;-46
2021/07/21 06:52:52;;;;;;;17.30;10.98;;;19.20;99.90;;;;;;5031207;28;20022;-48
2021/07/21 06:55:18;;;;;;;14.85;10.80;;;19.30;99.90;;;;;;5031115;28;20021;-47
2021/07/21 06:57:43;;;;;;;16.33;11.27;;;19.30;99.90;;;;;;5030901;28;20026;-49
2021/07/21 07:00:09;;;;;;;16.33;11.27;;;19.20;99.90;;;;;;5046411;28;20070;-49
2021/07/21 07:02:35;;;;;;;16.08;10.98;;;19.30;99.90;;;;;;5049458;28;20032;-46
2021/07/21 07:05:01;;;;;;;18.15;11.48;;;19.50;99.90;;;;;;5050972;28;20037;-47
2021/07/21 07:07:26;;;;;;;15.70;10.98;;;19.50;99.90;;;;;;5039096;28;20026;-47
2021/07/21 07:09:52;;;;;;;19.02;11.45;;;19.60;99.90;;;;;;5038509;28;20026;-47
2021/07/21 07:12:18;;;;;;;14.43;10.88;;;19.60;99.90;;;;;;5053374;28;20045;-49
2021/07/21 07:14:43;;;;;;;18.50;12.02;;;19.60;99.90;;;;;;5029065;28;20083;-49
2021/07/21 07:17:09;;;;;;;16.27;11.38;;;19.40;99.90;;;;;;5029655;28;20025;-47
2021/07/21 07:19:35;;;;;;;17.67;11.23;;;19.50;99.90;;;;;;5028619;28;20395;-48
2021/07/21 07:22:01;;;;;;;17.77;10.60;;;19.60;99.90;;;;;;5031487;28;20029;-46
2021/07/21 07:24:28;;;;;;;16.55;10.85;;;19.70;99.90;;;;;;5027324;28;20030;-47
2021/07/21 07:27:01;;;;;;;17.55;11.23;;;19.80;99.90;;;;;;5030062;28;20033;-46
2021/07/21 07:29:27;;;;;;;19.00;10.52;;;19.90;99.90;;;;;;5030974;28;20538;-47
2021/07/21 07:31:53;;;;;;;16.30;10.75;;;19.90;99.90;;;;;;5031041;28;20029;-46
2021/07/21 07:34:19;;;;;;;15.73;10.38;;;19.90;99.90;;;;;;5055008;28;20021;-47
2021/07/21 07:36:45;;;;;;;15.75;10.00;;;19.90;99.90;;;;;;5047692;28;20022;-46
2021/07/21 07:39:10;;;;;;;15.15;10.23;;;19.90;99.90;;;;;;5047613;28;20155;-50
2021/07/21 07:41:37;;;;;;;20.20;10.63;;;20.00;99.90;;;;;;5050184;28;20394;-46
2021/07/21 07:44:04;;;;;;;15.63;11.05;;;20.00;99.90;;;;;;5048950;28;20018;-48
2021/07/21 07:46:30;;;;;;;11.63;9.18;;;20.00;99.90;;;;;;5054230;28;20125;-47
2021/07/21 07:48:57;;;;;;;15.10;10.10;;;20.10;99.90;;;;;;5049495;28;20459;-46
2021/07/21 07:51:23;;;;;;;15.35;10.55;;;20.20;99.90;;;;;;5053720;28;20031;-45
2021/07/21 07:53:49;;;;;;;19.55;10.63;;;20.10;99.90;;;;;;5046494;28;20482;-48
2021/07/21 07:56:14;;;;;;;13.93;10.40;;;20.20;99.90;;;;;;5044630;28;20020;-47
2021/07/21 07:58:40;;;;;;;16.98;10.55;;;20.20;99.90;;;;;;5043804;28;20443;-47
2021/07/21 08:01:06;;;;;;;18.77;11.55;;;20.30;99.90;;;;;;5046535;28;20335;-46
2021/07/21 08:03:31;;;;;;;19.95;11.50;;;20.30;99.90;;;;;;5044564;28;20072;-46
2021/07/21 08:05:59;;;;;;;17.85;11.25;;;20.30;99.90;;;;;;5034914;28;20056;-47
2021/07/21 08:08:25;;;;;;;15.73;10.50;;;20.50;99.90;;;;;;5058342;28;20025;-47
2021/07/21 08:10:51;;;;;;;14.10;10.35;;;20.40;99.90;;;;;;5037607;28;20075;-46
2021/07/21 08:13:19;;;;;;;17.88;11.38;;;20.50;99.90;;;;;;5036637;28;20051;-48
2021/07/21 08:15:45;;;;;;;16.48;11.65;;;20.70;99.90;;;;;;5043059;28;20017;-47
2021/07/21 08:18:12;;;;;;;16.65;10.88;;;20.70;99.90;;;;;;5056648;28;20383;-46
2021/07/21 08:20:38;;;;;;;21.30;11.80;;;20.60;99.90;;;;;;5053850;28;20035;-47
2021/07/21 08:23:04;;;;;;;20.42;11.18;;;20.90;99.90;;;;;;5058646;28;20024;-46
2021/07/21 08:25:30;;;;;;;14.10;10.73;;;20.90;99.90;;;;;;5059674;28;20528;-47
2021/07/21 08:27:55;;;;;;;17.20;10.50;;;21.20;99.90;;;;;;5059013;28;20249;-47
2021/07/21 08:30:21;;;;;;;13.15;9.75;;;22.00;99.90;;;;;;5056139;28;20082;-47
2021/07/21 08:32:48;;;;;;;16.17;11.27;;;22.70;99.90;;;;;;5060842;28;20085;-49
2021/07/21 08:35:15;;;;;;;14.48;9.60;;;23.60;99.90;;;;;;5059308;28;20534;-47
2021/07/21 08:37:41;;;;;;;12.23;8.80;;;24.80;99.90;;;;;;5059510;28;20028;-47
2021/07/21 08:40:08;;;;;;;11.73;8.55;;;25.50;97.40;;;;;;5044024;28;20094;-47
2021/07/21 08:42:34;;;;;;;11.35;9.05;;;26.90;96.00;;;;;;5064041;28;20028;-47
2021/07/21 08:45:00;;;;;;;9.50;8.50;;;27.80;91.50;;;;;;5044067;28;20033;-48
2021/07/21 08:47:26;;;;;;;13.82;8.80;;;28.30;89.90;;;;;;5030790;28;20057;-50
2021/07/21 08:49:51;;;;;;;13.77;9.23;;;27.70;85.40;;;;;;5031874;28;20017;-47
2021/07/21 08:52:17;;;;;;;11.18;8.13;;;27.60;83.70;;;;;;5032913;28;20279;-50
2021/07/21 08:54:47;;;;;;;12.40;8.75;;;27.60;84.10;;;;;;5032666;28;20030;-47
2021/07/21 08:57:14;;;;;;;14.07;8.63;;;27.40;81.00;;;;;;5047821;28;20133;-48
2021/07/21 08:59:43;;;;;;;11.45;8.80;;;26.90;84.00;;;;;;5039271;28;20026;-46
2021/07/21 09:02:11;;;;;;;12.82;9.38;;;26.50;86.10;;;;;;5040091;28;20036;-47
2021/07/21 09:04:37;;;;;;;10.75;8.40;;;25.60;87.50;;;;;;5062987;28;20073;-47
2021/07/21 09:07:04;;;;;;;11.00;8.60;;;24.80;86.60;;;;;;5053706;28;20025;-47
2021/07/21 09:09:30;;;;;;;11.25;8.85;;;24.60;89.70;;;;;;5058488;28;20283;-47
2021/07/21 09:11:56;;;;;;;11.40;8.88;;;24.40;90.00;;;;;;5056825;28;20111;-46
2021/07/21 09:14:23;;;;;;;10.38;7.78;;;24.70;89.40;;;;;;5057782;28;20020;-47
2021/07/21 09:17:15;;;;;;;10.25;8.00;;;25.60;89.80;;;;;;5059330;28;20074;-49
2021/07/21 09:19:50;;;;;;;10.82;8.13;;;26.70;84.10;;;;;;5034100;28;20021;-50
2021/07/21 09:22:17;;;;;;;10.82;8.13;;;27.20;81.60;;;;;;5036759;28;20603;-49
2021/07/21 09:25:06;;;;;;;9.80;7.70;;;27.40;81.40;;;;;;5035018;28;20040;-47
2021/07/21 09:27:31;;;;;;;12.32;8.35;;;27.20;81.60;;;;;;5033878;28;20496;-47
2021/07/21 09:29:57;;;;;;;10.48;7.97;;;27.00;83.40;;;;;;5037105;28;20164;-47
2021/07/21 09:32:22;;;;;;;10.10;7.97;;;26.20;83.00;;;;;;5052942;28;20021;-48
2021/07/21 09:34:52;;;;;;;9.55;7.50;;;25.80;86.10;;;;;;5050106;28;20029;-47
2021/07/21 09:37:21;;;;;;;13.60;9.07;;;25.80;86.40;;;;;;5039670;28;20063;-46
2021/07/21 09:39:50;;;;;;;11.00;8.63;;;25.10;83.30;;;;;;5045739;28;20041;-47
2021/07/21 09:42:17;;;;;;;11.10;8.63;;;24.90;85.50;;;;;;5049629;28;20494;-47
2021/07/21 09:44:44;;;;;;;15.70;8.80;;;24.70;86.80;;;;;;5050551;28;20484;-47
2021/07/21 09:47:24;;;;;;;11.43;8.45;;;24.10;87.90;;;;;;5053852;28;20135;-47
2021/07/21 09:50:09;;;;;;;14.40;8.77;;;23.70;90.40;;;;;;5034968;28;20433;-46
2021/07/21 09:52:47;;;;;;;12.27;8.43;;;23.30;91.60;;;;;;5049513;28;20028;-47
2021/07/21 09:55:15;;;;;;;13.95;9.13;;;23.10;91.40;;;;;;5045342;28;20016;-48
2021/07/21 09:57:41;;;;;;;14.98;8.88;;;22.80;92.40;;;;;;5052680;28;20032;-47
2021/07/21 10:00:22;;;;;;;14.15;9.18;;;22.50;91.70;;;;;;5045957;28;20111;-46
2021/07/21 10:02:49;;;;;;;13.32;9.77;;;22.40;92.10;;;;;;5056125;28;20029;-46
2021/07/21 10:05:14;;;;;;;12.98;8.75;;;22.10;93.00;;;;;;5048140;28;20490;-47
2021/07/21 10:07:49;;;;;;;14.63;8.90;;;21.80;93.90;;;;;;5055295;28;20116;-47
2021/07/21 10:10:20;;;;;;;13.07;9.07;;;21.60;94.40;;;;;;5057326;28;20107;-49
2021/07/21 10:13:00;;;;;;;14.00;10.02;;;21.40;95.20;;;;;;5043335;28;20025;-47
2021/07/21 10:15:25;;;;;;;12.32;9.48;;;21.20;96.20;;;;;;5046165;28;20021;-48
2021/07/21 10:18:08;;;;;;;15.15;10.25;;;21.00;96.60;;;;;;5051064;28;20040;-47
2021/07/21 10:20:34;;;;;;;15.05;10.60;;;20.80;97.80;;;;;;5044709;28;20037;-48
2021/07/21 10:22:59;;;;;;;14.95;9.77;;;20.80;98.30;;;;;;5058563;28;20020;-48
2021/07/21 10:25:26;;;;;;;15.73;11.27;;;20.80;99.10;;;;;;5062050;28;20501;-47
2021/07/21 10:27:54;;;;;;;21.15;11.77;;;20.70;99.40;;;;;;5061308;28;20612;-50
2021/07/21 10:30:20;;;;;;;14.30;10.18;;;20.70;99.00;;;;;;5054985;28;20060;-47
2021/07/21 10:32:46;;;;;;;15.27;10.30;;;20.90;99.50;;;;;;5054379;28;20083;-49
2021/07/21 10:35:12;;;;;;;13.32;9.68;;;20.80;98.50;;;;;;5061217;28;20028;-49
2021/07/21 10:37:38;;;;;;;13.77;10.27;;;20.70;99.30;;;;;;5063120;28;20047;-47
2021/07/21 10:40:06;;;;;;;14.82;10.00;;;20.80;99.50;;;;;;5054463;28;20049;-47
2021/07/21 10:42:32;;;;;;;16.42;10.70;;;20.70;99.40;;;;;;5048493;28;20056;-49
2021/07/21 10:45:14;;;;;;;15.75;10.55;;;20.70;99.40;;;;;;5038040;28;20017;-46
2021/07/21 10:47:48;;;;;;;14.50;10.23;;;20.70;99.90;;;;;;5051270;28;20115;-47
2021/07/21 10:59:12;;;;;;;20.55;10.88;;;21.00;99.90;;;;;;5048493;28;20048;-46
2021/07/21 11:01:49;;;;;;;16.77;11.55;;;21.00;99.80;;;;;;5041495;28;20394;-47
2021/07/21 11:04:16;;;;;;;13.95;10.32;;;21.10;99.70;;;;;;5057628;28;20039;-47
2021/07/21 11:06:47;;;;;;;16.42;10.05;;;21.10;99.90;;;;;;5052679;28;20016;-47
2021/07/21 11:09:18;;;;;;;16.77;9.13;;;21.30;99.60;;;;;;5056637;28;20017;-46
2021/07/21 11:11:45;;;;;;;15.27;10.07;;;21.40;98.60;;;;;;5047944;28;20108;-47
2021/07/21 11:14:19;;;;;;;13.88;10.05;;;21.70;98.70;;;;;;5044644;28;20104;-48
2021/07/21 11:16:48;;;;;;;17.02;10.40;;;21.80;99.30;;;;;;5042511;28;20032;-48
2021/07/21 11:19:23;;;;;;;14.20;9.88;;;21.90;97.10;;;;;;5039991;28;21039;-48
2021/07/21 11:22:00;;;;;;;13.40;9.13;;;22.00;97.30;;;;;;5033440;28;20079;-48
2021/07/21 11:24:30;;;;;;;12.95;8.85;;;22.10;97.30;;;;;;5038436;28;20033;-47
2021/07/21 11:26:56;;;;;;;15.13;9.13;;;22.10;96.70;;;;;;5037200;28;20090;-48
2021/07/21 11:29:22;;;;;;;18.42;9.60;;;22.00;96.20;;;;;;5042658;28;20283;-47
2021/07/21 11:31:53;;;;;;;13.05;8.90;;;22.10;96.80;;;;;;5036817;28;20045;-46
2021/07/21 11:34:38;;;;;;;14.90;9.75;;;22.30;96.80;;;;;;5038968;28;20518;-48
2021/07/21 11:37:05;;;;;;;16.38;8.55;;;22.30;96.60;;;;;;5040142;28;20021;-47
2021/07/21 11:39:47;;;;;;;10.68;8.80;;;22.40;96.80;;;;;;5039467;28;20052;-50
2021/07/21 11:42:26;;;;;;;15.30;10.15;;;22.40;96.10;;;;;;5040398;28;20083;-48
2021/07/21 11:45:12;;;;;;;15.10;9.75;;;22.30;96.50;;;;;;5039472;28;20030;-47
2021/07/21 11:47:44;;;;;;;13.63;9.25;;;22.30;96.80;;;;;;5040715;28;20049;-47
2021/07/21 11:50:25;;;;;;;14.77;9.90;;;22.40;96.60;;;;;;5046168;28;20026;-46
2021/07/21 11:52:55;;;;;;;14.45;9.50;;;22.40;96.80;;;;;;5039282;28;20029;-47
2021/07/21 11:55:26;;;;;;;14.00;9.75;;;22.50;96.80;;;;;;5034498;28;20029;-48
2021/07/21 11:57:53;;;;;;;15.98;10.57;;;22.60;96.20;;;;;;5039916;28;20021;-50
2021/07/21 12:00:20;;;;;;;16.05;9.60;;;22.70;95.20;;;;;;5036017;28;20036;-49
2021/07/21 12:02:47;;;;;;;13.30;8.68;;;22.80;95.20;;;;;;5040351;28;20029;-47
2021/07/21 12:05:13;;;;;;;13.05;9.43;;;22.90;95.10;;;;;;5042793;28;20097;-48
2021/07/21 12:07:40;;;;;;;14.60;9.35;;;23.30;94.50;;;;;;5040519;28;20057;-47
2021/07/21 12:10:10;;;;;;;12.82;9.63;;;23.30;93.50;;;;;;5041387;28;20104;-48
2021/07/21 12:12:37;;;;;;;12.77;8.75;;;23.40;93.20;;;;;;5035881;28;20013;-47
2021/07/21 12:15:03;;;;;;;14.13;9.70;;;23.60;93.00;;;;;;5035765;28;20017;-50
2021/07/21 12:17:29;;;;;;;13.50;9.27;;;23.70;93.20;;;;;;5033194;28;20028;-50
2021/07/21 12:19:56;;;;;;;12.23;8.65;;;23.90;92.10;;;;;;5037620;28;20021;-49
2021/07/21 12:22:23;;;;;;;13.85;8.45;;;24.30;93.40;;;;;;5033051;28;20109;-48
2021/07/21 12:24:51;;;;;;;12.30;8.93;;;24.30;91.90;;;;;;5032879;28;20018;-47
2021/07/21 12:27:28;;;;;;;14.13;9.10;;;24.30;91.30;;;;;;5035812;28;20032;-50
2021/07/21 12:29:57;;;;;;;12.98;8.90;;;24.60;90.50;;;;;;5036092;28;20294;-48
2021/07/21 12:32:24;;;;;;;11.75;9.07;;;25.00;91.60;;;;;;5034858;28;20540;-47
2021/07/21 12:34:54;;;;;;;13.50;8.77;;;25.50;90.60;;;;;;5031796;28;20033;-50
2021/07/21 12:37:25;;;;;;;11.40;8.65;;;25.90;90.70;;;;;;5031082;28;20687;-48
2021/07/21 12:39:53;;;;;;;11.95;9.20;;;26.20;91.30;;;;;;5032172;28;20080;-47
2021/07/21 12:42:24;;;;;;;11.45;8.32;;;26.30;89.00;;;;;;5030734;28;20025;-48
2021/07/21 12:45:06;;;;;;;10.70;8.18;;;26.20;87.60;;;;;;5040789;28;20025;-48
2021/07/21 12:47:35;;;;;;;11.63;9.00;;;26.30;84.10;;;;;;5043427;28;20020;-47